createdAt,value
2022-09-03T00:04:11.749Z,0
2022-09-03T00:09:15.859Z,0
2022-09-03T00:14:20.054Z,0
2022-09-03T00:19:24.197Z,0
2022-09-03T00:24:28.366Z,0
2022-09-03T00:29:32.513Z,0
2022-09-03T00:34:36.706Z,0
2022-09-03T00:39:40.920Z,0
2022-09-03T00:44:44.999Z,0
2022-09-03T00:49:49.187Z,0
2022-09-03T00:54:53.317Z,0
2022-09-03T00:59:57.469Z,0
2022-09-03T01:05:01.670Z,0
2022-09-03T01:10:05.809Z,0
2022-09-03T01:15:08.096Z,0
2022-09-03T01:20:12.221Z,0
2022-09-03T01:25:14.507Z,0
2022-09-03T01:30:18.701Z,0
2022-09-03T01:35:22.811Z,0
2022-09-03T01:40:26.997Z,0
2022-09-03T01:45:31.141Z,0
2022-09-03T01:50:35.325Z,0
2022-09-03T01:55:39.447Z,0
2022-09-03T02:00:43.632Z,0
2022-09-03T02:05:47.774Z,0
2022-09-03T02:10:51.921Z,0
2022-09-03T02:15:56.193Z,0
2022-09-03T02:21:00.289Z,0
2022-09-03T02:26:04.420Z,0
2022-09-03T02:31:08.631Z,0
2022-09-03T02:36:12.729Z,0
2022-09-03T02:41:16.927Z,0
2022-09-03T02:46:21.156Z,0
2022-09-03T02:51:25.230Z,0
2022-09-03T02:56:27.499Z,0
2022-09-03T03:01:31.768Z,0
2022-09-03T03:06:35.812Z,0
2022-09-03T03:11:38.063Z,0
2022-09-03T03:16:42.313Z,0
2022-09-03T03:21:44.508Z,0
2022-09-03T03:26:48.667Z,0
2022-09-03T03:31:52.863Z,0
2022-09-03T03:36:56.978Z,0
2022-09-03T03:42:01.126Z,0
2022-09-03T03:47:05.326Z,0
2022-09-03T03:52:09.492Z,0
2022-09-03T03:57:13.650Z,0
2022-09-03T04:02:17.909Z,0
2022-09-03T04:07:21.996Z,0
2022-09-03T04:12:26.140Z,0
2022-09-03T04:17:30.312Z,0
2022-09-03T04:22:34.488Z,1
2022-09-03T04:27:38.607Z,5
2022-09-03T04:32:42.763Z,11
2022-09-03T04:37:46.910Z,25
2022-09-03T04:42:51.089Z,50
2022-09-03T04:47:55.242Z,89
2022-09-03T04:52:59.398Z,141
2022-09-03T04:58:03.566Z,209
2022-09-03T05:03:07.707Z,290
2022-09-03T05:08:10.024Z,380
2022-09-03T05:13:14.168Z,469
2022-09-03T05:18:18.374Z,559
2022-09-03T05:23:22.516Z,650
2022-09-03T05:28:26.660Z,735
2022-09-03T05:33:30.817Z,820
2022-09-03T05:38:35.034Z,899
2022-09-03T05:43:39.145Z,974
2022-09-03T05:48:43.271Z,1042
2022-09-03T05:53:47.462Z,1109
2022-09-03T05:58:51.607Z,1170
2022-09-03T06:03:55.775Z,1228
2022-09-03T06:08:59.943Z,1282
2022-09-03T06:14:04.092Z,1334
2022-09-03T06:19:08.261Z,1377
2022-09-03T06:24:12.415Z,1416
2022-09-03T06:29:16.564Z,1448
2022-09-03T06:34:20.749Z,1489
2022-09-03T06:39:24.969Z,1527
2022-09-03T06:44:29.050Z,1560
2022-09-03T06:49:33.200Z,1589
2022-09-03T06:54:35.449Z,1619
2022-09-03T06:59:39.669Z,1640
2022-09-03T07:04:43.796Z,1662
2022-09-03T07:09:48.567Z,1685
2022-09-03T07:14:52.144Z,1707
2022-09-03T07:19:56.296Z,1730
2022-09-03T07:25:00.444Z,1753
2022-09-03T07:30:04.610Z,1775
2022-09-03T07:35:08.781Z,1798
2022-09-03T07:40:12.926Z,1848
2022-09-03T07:45:17.075Z,1899
2022-09-03T07:50:21.320Z,1957
2022-09-03T07:55:25.384Z,1994
2022-09-03T08:00:29.589Z,2346
2022-09-03T08:05:33.714Z,2573
2022-09-03T08:10:37.864Z,2568
2022-09-03T08:15:42.051Z,2545
2022-09-03T08:20:46.202Z,4088
2022-09-03T08:25:50.376Z,4564
2022-09-03T08:30:54.540Z,3850
2022-09-03T08:35:58.671Z,3410
2022-09-03T08:41:00.946Z,2965
2022-09-03T08:46:05.125Z,2396
2022-09-03T08:51:07.371Z,2225
2022-09-03T08:56:11.550Z,2215
2022-09-03T09:01:13.813Z,2201
2022-09-03T09:06:17.963Z,2180
2022-09-03T09:11:20.221Z,2224
2022-09-03T09:16:24.441Z,2256
2022-09-03T09:21:28.584Z,2271
2022-09-03T09:26:32.681Z,2283
2022-09-03T09:31:36.919Z,2267
2022-09-03T09:36:41.001Z,2259
2022-09-03T09:41:45.196Z,2236
2022-09-03T09:46:52.769Z,2225
2022-09-03T09:51:53.512Z,2244
2022-09-03T10:02:01.906Z,2346
2022-09-03T10:07:05.955Z,2346
2022-09-03T10:12:10.185Z,2364
2022-09-03T10:17:14.314Z,2342
2022-09-03T10:22:18.459Z,2392
2022-09-03T10:27:22.604Z,2416
2022-09-03T10:32:27.422Z,2235
2022-09-03T10:37:30.954Z,2308
2022-09-03T10:42:35.090Z,2627
2022-09-03T10:47:39.254Z,2971
2022-09-03T10:52:43.425Z,3579
2022-09-03T10:57:47.565Z,4182
2022-09-03T11:02:49.895Z,4043
2022-09-03T11:07:54.031Z,3861
2022-09-03T11:12:56.251Z,3243
2022-09-03T11:18:00.420Z,3034
2022-09-03T11:23:04.590Z,3103
2022-09-03T11:28:08.707Z,3432
2022-09-03T11:33:12.908Z,3573
2022-09-03T11:38:17.071Z,3399
2022-09-03T11:43:21.234Z,3516
2022-09-03T11:53:29.523Z,3508
2022-09-03T11:58:33.663Z,3604
2022-09-03T12:03:37.877Z,3565
2022-09-03T12:08:42.022Z,3557
2022-09-03T12:13:48.191Z,3576
2022-09-03T12:18:50.315Z,3500
2022-09-03T12:23:58.037Z,3645
2022-09-03T12:28:58.621Z,4045
2022-09-03T12:34:02.816Z,3857
2022-09-03T12:39:12.052Z,4285
2022-09-03T12:44:11.126Z,4424
2022-09-03T12:49:31.134Z,3867
2022-09-03T12:54:19.424Z,4152
2022-09-03T12:59:23.573Z,5637
2022-09-03T13:04:25.853Z,5649
2022-09-03T13:09:30.008Z,5649
2022-09-03T13:14:32.303Z,5806
2022-09-03T13:19:36.570Z,5543
2022-09-03T13:24:38.732Z,5780
2022-09-03T13:29:42.878Z,6085
2022-09-03T13:34:47.040Z,6823
2022-09-03T13:39:51.260Z,6740
2022-09-03T13:44:55.340Z,7005
2022-09-03T13:49:59.743Z,6840
2022-09-03T13:55:03.663Z,6579
2022-09-03T14:00:07.819Z,6106
2022-09-03T14:05:12.017Z,7914
2022-09-03T14:10:16.137Z,9211
2022-09-03T14:15:20.287Z,9605
2022-09-03T14:20:24.462Z,9220
2022-09-03T14:25:28.634Z,7630
2022-09-03T14:30:32.782Z,7447
2022-09-03T14:35:36.952Z,7495
2022-09-03T14:40:41.106Z,8200
2022-09-03T14:45:45.343Z,8990
2022-09-03T14:50:49.388Z,9164
2022-09-03T14:55:53.574Z,8803
2022-09-03T15:00:57.762Z,9645
2022-09-03T15:06:01.885Z,8710
2022-09-03T15:11:04.163Z,8956
2022-09-03T15:16:08.395Z,7522
2022-09-03T15:21:12.490Z,7040
2022-09-03T15:26:18.725Z,11181
2022-09-03T15:31:20.874Z,7262
2022-09-03T15:36:24.947Z,17665
2022-09-03T15:41:29.148Z,21209
2022-09-03T15:46:33.291Z,12067
2022-09-03T15:51:37.433Z,7343
2022-09-03T15:56:42.115Z,5608
2022-09-03T16:01:45.931Z,4382
2022-09-03T16:06:49.903Z,3910
2022-09-03T16:11:54.051Z,3986
2022-09-03T16:16:58.247Z,4197
2022-09-03T16:22:02.398Z,3714
2022-09-03T16:27:06.554Z,3876
2022-09-03T16:32:10.688Z,2725
2022-09-03T16:37:14.866Z,2230
2022-09-03T16:42:19.022Z,1981
2022-09-03T16:47:23.199Z,1442
2022-09-03T16:52:38.209Z,1202
2022-09-03T16:57:29.607Z,1255
2022-09-03T17:02:41.343Z,1431
2022-09-03T17:07:36.011Z,1865
2022-09-03T17:12:40.189Z,2427
2022-09-03T17:17:44.376Z,2173
2022-09-03T17:22:48.508Z,1645
2022-09-03T17:27:52.684Z,1213
2022-09-03T17:32:57.199Z,812
2022-09-03T17:38:01.002Z,562
2022-09-03T17:43:05.146Z,446
2022-09-03T17:48:09.312Z,363
2022-09-03T17:53:13.483Z,293
2022-09-03T17:58:17.651Z,247
2022-09-03T18:03:21.809Z,213
2022-09-03T18:08:25.955Z,180
2022-09-03T18:13:30.098Z,129
2022-09-03T18:18:34.335Z,83
2022-09-03T18:23:38.438Z,50
2022-09-03T18:28:42.576Z,26
2022-09-03T18:33:46.741Z,12
2022-09-03T18:38:50.912Z,5
2022-09-03T18:43:55.079Z,1
2022-09-03T18:48:59.306Z,0
2022-09-03T18:54:01.499Z,0
2022-09-03T18:59:05.679Z,0
2022-09-03T19:04:14.193Z,0
2022-09-03T19:09:12.538Z,0
2022-09-03T19:14:16.242Z,0
2022-09-03T19:19:24.406Z,0
2022-09-03T19:24:24.536Z,0
2022-09-03T19:29:28.731Z,0
2022-09-03T19:34:32.861Z,0
2022-09-03T19:39:37.105Z,0
2022-09-03T19:44:41.188Z,0
2022-09-03T19:49:48.377Z,0
2022-09-03T19:54:47.621Z,0
2022-09-03T19:59:51.803Z,0
2022-09-03T20:04:57.245Z,0
2022-09-03T20:10:00.096Z,0
2022-09-03T20:15:04.287Z,0
2022-09-03T20:20:08.404Z,0
2022-09-03T20:25:12.590Z,0
2022-09-03T20:30:16.759Z,0
2022-09-03T20:35:20.907Z,0
2022-09-03T20:40:25.754Z,0
2022-09-03T20:45:29.230Z,0
2022-09-03T20:50:31.490Z,0
2022-09-03T20:55:35.645Z,0
2022-09-03T21:00:38.139Z,0
2022-09-03T21:05:42.106Z,0
2022-09-03T21:10:44.331Z,0
2022-09-03T21:15:50.316Z,0
2022-09-03T21:20:53.172Z,0
2022-09-03T21:25:56.844Z,0
2022-09-03T21:31:01.140Z,0
2022-09-03T21:36:05.150Z,0
2022-09-03T21:41:09.293Z,0
2022-09-03T21:46:13.542Z,0
2022-09-03T21:51:17.640Z,0
2022-09-03T21:56:21.779Z,0
2022-09-03T22:01:26.017Z,0
2022-09-03T22:06:30.107Z,0
2022-09-03T22:11:34.253Z,0
2022-09-03T22:16:38.551Z,0
2022-09-03T22:21:42.596Z,0
2022-09-03T22:26:46.756Z,0
2022-09-03T22:31:50.929Z,0
2022-09-03T22:36:55.070Z,0
2022-09-03T22:41:59.229Z,0
2022-09-03T22:47:03.381Z,0
2022-09-03T22:52:07.522Z,0
2022-09-03T22:57:09.819Z,0
2022-09-03T23:02:13.991Z,0
2022-09-03T23:07:16.261Z,0
2022-09-03T23:12:20.394Z,0
2022-09-03T23:17:24.554Z,0
2022-09-03T23:22:28.765Z,0
2022-09-03T23:27:32.867Z,0
2022-09-03T23:32:37.037Z,0
2022-09-03T23:37:41.181Z,0
2022-09-03T23:42:45.338Z,0
2022-09-03T23:47:49.515Z,0
2022-09-03T23:52:53.715Z,0
2022-09-03T23:57:57.850Z,0
